Time;durP1;ratioP1;P1;durP2;ratioP2;P2;SDS_P1;SDS_P2;PMS_P1;PMS_P2;Temp;Humidity;BMP_temperature;BMP_pressure;BME280_temperature;BME280_humidity;BME280_pressure;Samples;Min_cycle;Max_cycle;Signal;HPM_P1;HPM_P2
2022/05/31 10:00:14;;;;;;;5.65;3.88;;;17.80;99.20;;;;;;6692256;23;20053;-65
2022/05/31 10:03:17;;;;;;;5.97;3.85;;;17.90;98.20;;;;;;5919228;29;20052;-64
2022/05/31 10:06:22;;;;;;;5.97;3.17;;;17.80;98.40;;;;;;6071575;29;20048;-64
2022/05/31 10:09:33;;;;;;;4.50;3.13;;;17.70;98.40;;;;;;6069952;29;20056;-64
2022/05/31 10:12:36;;;;;;;2.63;1.67;;;17.70;99.20;;;;;;6076978;29;20105;-64
2022/05/31 10:15:51;;;;;;;4.75;3.30;;;17.90;99.10;;;;;;6041409;29;20060;-63
2022/05/31 10:18:55;;;;;;;5.00;3.10;;;18.00;98.00;;;;;;5989707;29;79164;-64
2022/05/31 10:21:58;;;;;;;7.03;3.28;;;17.90;98.00;;;;;;6024034;29;20049;-64
2022/05/31 10:25:18;;;;;;;5.15;3.10;;;17.70;97.60;;;;;;6032541;29;20132;-64
2022/05/31 10:28:27;;;;;;;3.45;1.77;;;17.50;98.00;;;;;;6032141;29;20060;-64
2022/05/31 10:31:34;;;;;;;4.30;2.75;;;17.40;98.00;;;;;;6039182;29;56450;-65
2022/05/31 10:34:40;;;;;;;6.25;2.30;;;17.50;98.50;;;;;;6036770;29;20049;-65
2022/05/31 10:37:55;;;;;;;3.08;1.95;;;17.40;97.40;;;;;;6027359;29;20046;-65
2022/05/31 11:05:33;;;;;;;2.65;1.92;;;17.60;95.10;;;;;;6217121;23;20065;-62
2022/05/31 11:12:29;;;;;;;5.30;2.30;;;17.50;94.80;;;;;;6034898;29;20041;-59
2022/05/31 11:15:37;;;;;;;4.28;2.10;;;17.50;95.30;;;;;;6123510;23;20117;-64
2022/05/31 11:19:07;;;;;;;4.32;1.45;;;17.50;95.50;;;;;;6105534;29;20505;-65
2022/05/31 11:22:26;;;;;;;2.60;2.22;;;17.50;95.80;;;;;;6135596;23;20060;-60
2022/05/31 11:25:57;;;;;;;4.68;2.35;;;17.60;95.00;;;;;;6075087;29;20501;-60
2022/05/31 11:29:35;;;;;;;2.97;1.90;;;17.70;95.10;;;;;;6069800;29;20059;-60
2022/05/31 11:33:02;;;;;;;4.90;2.25;;;17.80;95.00;;;;;;6070504;29;20048;-60
2022/05/31 11:36:22;;;;;;;4.15;2.53;;;17.90;95.30;;;;;;6060496;29;20075;-60
2022/05/31 11:39:53;;;;;;;3.55;1.90;;;17.80;94.00;;;;;;6061108;29;20080;-60
2022/05/31 11:43:34;;;;;;;6.35;1.95;;;17.80;94.30;;;;;;6060024;29;20057;-60
2022/05/31 11:46:43;;;;;;;2.67;2.30;;;17.80;94.50;;;;;;6067104;29;20056;-59
2022/05/31 11:49:56;;;;;;;5.07;1.67;;;17.70;94.00;;;;;;6077865;29;20048;-60
2022/05/31 11:53:21;;;;;;;7.03;1.40;;;17.70;94.60;;;;;;6077730;29;20051;-60
2022/05/31 11:56:29;;;;;;;3.25;1.95;;;17.80;94.40;;;;;;6076975;29;20564;-59
2022/05/31 11:59:38;;;;;;;3.40;1.08;;;17.80;94.30;;;;;;6075723;29;20516;-59
2022/05/31 12:02:47;;;;;;;3.58;1.60;;;17.70;95.40;;;;;;5985019;29;20063;-59
2022/05/31 12:05:53;;;;;;;4.82;1.83;;;17.90;95.00;;;;;;6055932;29;20080;-61
2022/05/31 12:09:01;;;;;;;3.53;1.80;;;18.20;94.80;;;;;;6058355;29;20427;-61
2022/05/31 12:12:08;;;;;;;3.28;2.72;;;18.20;93.10;;;;;;6076089;29;20048;-61
2022/05/31 12:15:15;;;;;;;3.60;2.25;;;18.20;92.50;;;;;;6079328;29;20045;-61
2022/05/31 12:18:24;;;;;;;4.57;2.40;;;18.10;93.00;;;;;;6059408;29;20056;-61
2022/05/31 12:21:35;;;;;;;2.83;2.00;;;18.10;92.80;;;;;;6068279;29;20497;-62
2022/05/31 12:24:42;;;;;;;3.33;1.85;;;18.10;93.00;;;;;;6074178;29;20465;-60
2022/05/31 12:27:50;;;;;;;3.40;1.58;;;18.10;93.60;;;;;;6061203;29;20486;-60
2022/05/31 12:31:03;;;;;;;3.60;2.50;;;18.30;93.90;;;;;;6077967;29;20056;-60
2022/05/31 12:34:13;;;;;;;4.30;2.40;;;18.50;92.80;;;;;;6056526;29;20516;-60
2022/05/31 12:37:16;;;;;;;3.20;1.20;;;18.50;92.90;;;;;;6060905;29;20064;-60
2022/05/31 12:40:29;;;;;;;4.07;2.25;;;18.60;93.70;;;;;;6073797;29;20045;-60
2022/05/31 12:43:55;;;;;;;4.68;2.30;;;18.70;92.50;;;;;;6076113;29;20572;-60
2022/05/31 12:47:13;;;;;;;2.28;1.65;;;18.60;91.50;;;;;;6077857;29;20045;-60
2022/05/31 12:50:48;;;;;;;3.88;2.00;;;18.60;90.40;;;;;;6076078;29;20131;-60
2022/05/31 12:54:06;;;;;;;4.13;2.00;;;18.40;91.10;;;;;;6077738;29;20049;-60
2022/05/31 12:57:22;;;;;;;2.30;1.70;;;18.40;91.40;;;;;;6071006;29;20056;-60
2022/05/31 13:00:41;;;;;;;1.98;1.15;;;18.40;91.40;;;;;;6075979;29;20072;-60
2022/05/31 13:03:57;;;;;;;2.80;1.88;;;18.50;92.00;;;;;;6076431;29;20064;-60
2022/05/31 13:07:09;;;;;;;3.97;2.38;;;18.40;91.50;;;;;;6060620;29;20405;-60
2022/05/31 13:10:35;;;;;;;2.60;1.50;;;18.40;91.30;;;;;;6067939;29;20045;-60
2022/05/31 13:20:34;;;;;;;3.70;1.50;;;18.10;90.80;;;;;;6071310;29;20049;-60
2022/05/31 13:23:41;;;;;;;3.97;1.40;;;18.00;90.60;;;;;;6067968;29;20049;-60
2022/05/31 13:26:43;;;;;;;2.35;1.30;;;17.90;91.40;;;;;;6077156;29;20055;-60
2022/05/31 13:29:45;;;;;;;2.88;1.30;;;18.00;91.90;;;;;;6073273;29;20048;-60
2022/05/31 13:32:49;;;;;;;2.75;1.30;;;18.10;91.80;;;;;;6064545;29;20056;-60
2022/05/31 13:35:59;;;;;;;3.92;1.50;;;18.10;91.50;;;;;;6081383;29;20498;-60
2022/05/31 13:39:06;;;;;;;4.13;1.75;;;18.10;91.10;;;;;;6063011;29;20049;-61
2022/05/31 13:42:18;;;;;;;4.50;1.50;;;18.00;91.10;;;;;;6065122;29;20413;-60
2022/05/31 13:45:23;;;;;;;4.15;1.73;;;18.10;92.00;;;;;;6074363;29;20055;-60
2022/05/31 13:48:30;;;;;;;5.53;0.88;;;18.00;91.60;;;;;;6080452;29;20058;-60
2022/05/31 13:51:32;;;;;;;5.45;1.90;;;18.10;92.80;;;;;;6081240;29;20048;-60
2022/05/31 13:54:43;;;;;;;4.07;2.10;;;18.10;91.60;;;;;;6081035;29;20063;-60
2022/05/31 13:57:57;;;;;;;4.70;1.58;;;18.10;91.30;;;;;;6080279;29;20059;-60
2022/05/31 14:01:00;;;;;;;2.90;1.60;;;18.10;91.20;;;;;;6063787;29;20045;-59
2022/05/31 14:04:10;;;;;;;3.87;1.50;;;18.20;91.20;;;;;;6078388;29;20049;-60
2022/05/31 14:07:17;;;;;;;3.70;1.55;;;18.20;91.60;;;;;;6079581;29;20045;-60
2022/05/31 14:10:21;;;;;;;4.22;1.45;;;18.30;92.10;;;;;;6081478;29;20045;-60
2022/05/31 14:13:27;;;;;;;3.05;2.00;;;18.40;92.20;;;;;;6080623;29;20056;-59
2022/05/31 14:16:35;;;;;;;2.95;1.70;;;18.50;91.80;;;;;;6057249;29;20056;-60
2022/05/31 14:19:45;;;;;;;3.67;2.17;;;18.40;91.90;;;;;;6079591;29;20526;-60
2022/05/31 14:22:47;;;;;;;3.10;1.50;;;18.40;91.60;;;;;;6063439;29;20064;-60
2022/05/31 14:25:51;;;;;;;3.65;1.70;;;18.40;92.30;;;;;;6064016;29;20506;-60
2022/05/31 14:29:09;;;;;;;;;;;18.50;91.80;;;;;;6080486;29;20048;-60
2022/05/31 14:32:21;;;;;;;4.22;1.20;;;18.50;92.00;;;;;;6063258;29;19923;-60
2022/05/31 14:35:30;;;;;;;1.70;0.90;;;18.60;92.50;;;;;;6078866;29;20429;-60
2022/05/31 14:38:36;;;;;;;4.18;1.92;;;18.60;92.50;;;;;;6079147;29;20056;-60
2022/05/31 14:41:43;;;;;;;6.25;2.17;;;18.60;92.30;;;;;;6069852;29;20053;-60
2022/05/31 14:44:47;;;;;;;4.03;1.60;;;18.60;92.10;;;;;;6057767;29;20048;-63
2022/05/31 14:47:48;;;;;;;4.97;1.45;;;18.50;92.00;;;;;;6077625;29;20052;-66
2022/05/31 14:50:58;;;;;;;6.60;1.83;;;18.50;92.40;;;;;;6063249;29;20053;-58
2022/05/31 14:54:00;;;;;;;7.00;1.95;;;18.50;91.80;;;;;;6075551;29;20048;-60
2022/05/31 14:57:06;;;;;;;5.93;1.85;;;18.40;92.40;;;;;;6076275;29;20044;-59
2022/05/31 15:00:13;;;;;;;3.75;2.00;;;18.40;92.60;;;;;;6064151;29;20076;-59
2022/05/31 15:03:25;;;;;;;3.28;1.80;;;18.30;92.00;;;;;;6062677;29;20052;-59
2022/05/31 15:06:30;;;;;;;5.20;1.63;;;18.20;92.20;;;;;;6077374;29;20064;-59
2022/05/31 15:09:34;;;;;;;4.30;1.50;;;18.20;93.50;;;;;;6060055;29;20132;-60
2022/05/31 15:19:18;;;;;;;4.90;1.73;;;17.90;93.90;;;;;;6078686;29;20036;-61
2022/05/31 15:22:24;;;;;;;8.00;1.70;;;17.90;93.50;;;;;;6059235;29;20055;-61
2022/05/31 15:25:26;;;;;;;4.85;1.60;;;17.90;94.00;;;;;;6079438;29;20101;-61
2022/05/31 15:28:28;;;;;;;2.55;1.02;;;17.90;94.30;;;;;;6070384;29;20059;-61
2022/05/31 15:31:33;;;;;;;3.50;1.88;;;18.00;94.90;;;;;;6073451;29;20059;-61
2022/05/31 15:34:36;;;;;;;2.95;1.88;;;18.00;92.80;;;;;;6076589;29;20056;-61
2022/05/31 15:37:40;;;;;;;4.50;1.87;;;18.00;92.20;;;;;;6076069;29;20057;-61
2022/05/31 15:40:43;;;;;;;3.78;0.80;;;18.10;92.40;;;;;;6057611;29;20053;-61
2022/05/31 15:43:55;;;;;;;2.08;1.13;;;18.10;94.50;;;;;;6077214;29;20059;-61
2022/05/31 15:46:56;;;;;;;3.28;1.98;;;18.20;95.00;;;;;;6072944;29;20056;-61
2022/05/31 15:49:58;;;;;;;6.15;2.33;;;18.40;92.70;;;;;;6072105;29;20494;-61
2022/05/31 15:53:02;;;;;;;4.75;2.00;;;18.40;91.10;;;;;;6066335;29;20052;-61
2022/05/31 15:56:05;;;;;;;2.97;1.80;;;18.40;90.30;;;;;;6071298;29;20052;-61
2022/05/31 15:59:08;;;;;;;2.13;1.38;;;18.20;89.40;;;;;;6077976;29;20132;-61
2022/05/31 16:02:11;;;;;;;4.65;1.70;;;18.00;90.80;;;;;;6073196;29;20205;-62
2022/05/31 16:05:14;;;;;;;4.20;1.45;;;18.00;90.10;;;;;;6056921;29;20482;-61
2022/05/31 16:08:20;;;;;;;6.18;2.17;;;17.90;91.50;;;;;;6077265;29;20538;-61
2022/05/31 16:11:22;;;;;;;4.78;2.00;;;17.80;90.60;;;;;;6061313;29;20056;-61
2022/05/31 16:14:27;;;;;;;3.90;1.80;;;17.70;90.00;;;;;;6047848;29;20631;-61
2022/05/31 16:17:29;;;;;;;5.72;1.90;;;17.60;89.60;;;;;;6078117;29;20049;-61
2022/05/31 16:20:31;;;;;;;3.13;1.95;;;17.50;91.10;;;;;;6072816;29;20056;-61
2022/05/31 16:23:36;;;;;;;7.32;2.10;;;17.40;90.60;;;;;;6075686;29;20049;-61
2022/05/31 16:26:40;;;;;;;1.95;1.40;;;17.30;90.40;;;;;;6060418;29;20081;-61
2022/05/31 16:29:43;;;;;;;2.83;1.55;;;17.40;91.00;;;;;;6059115;29;20048;-61
2022/05/31 16:32:45;;;;;;;4.05;2.00;;;17.30;91.80;;;;;;6064720;29;20433;-61
2022/05/31 16:35:49;;;;;;;4.00;1.83;;;17.20;91.70;;;;;;6040955;29;20075;-61
2022/05/31 16:42:13;;;;;;;3.70;1.90;;;17.00;90.70;;;;;;6077115;29;20497;-61
2022/05/31 16:45:15;;;;;;;4.13;2.35;;;17.00;90.90;;;;;;6075298;29;20052;-61
2022/05/31 16:48:17;;;;;;;5.68;2.00;;;17.00;91.40;;;;;;6037855;29;20053;-61
2022/05/31 16:51:26;;;;;;;5.50;2.30;;;17.00;92.00;;;;;;6048610;29;20049;-62
2022/05/31 16:54:31;;;;;;;6.70;2.30;;;16.90;90.20;;;;;;6036464;29;20048;-62
2022/05/31 16:57:34;;;;;;;3.83;2.20;;;16.90;90.60;;;;;;6048040;29;20064;-61
2022/05/31 17:00:36;;;;;;;6.80;1.97;;;16.90;91.10;;;;;;6066852;29;20142;-61
2022/05/31 17:03:38;;;;;;;5.13;2.80;;;16.90;91.40;;;;;;6074043;29;20044;-61
2022/05/31 17:16:51;;;;;;;7.57;4.20;;;16.50;95.50;;;;;;6034839;29;20127;-61
2022/05/31 17:19:53;;;;;;;5.80;3.90;;;16.30;96.80;;;;;;6058090;29;20041;-61
2022/05/31 17:22:57;;;;;;;5.70;4.15;;;16.10;97.60;;;;;;6059983;29;20049;-61
2022/05/31 17:26:04;;;;;;;8.48;4.72;;;16.00;98.00;;;;;;6073142;29;20048;-61
2022/05/31 17:29:06;;;;;;;693.55;279.02;;;15.80;99.00;;;;;;6076439;29;20057;-61
2022/05/31 17:32:09;;;;;;;194.07;102.60;;;15.70;99.30;;;;;;6069525;29;20498;-61
2022/05/31 17:35:11;;;;;;;13.50;8.20;;;15.60;99.70;;;;;;6074694;29;20049;-61
2022/05/31 17:38:16;;;;;;;15.90;9.20;;;15.50;99.90;;;;;;6059873;29;20486;-61
2022/05/31 17:41:26;;;;;;;13.27;7.32;;;15.40;99.90;;;;;;6074048;29;20397;-60
2022/05/31 17:44:29;;;;;;;8.52;6.38;;;15.30;99.90;;;;;;6074224;29;20486;-61
2022/05/31 17:47:31;;;;;;;8.30;6.13;;;15.20;99.90;;;;;;6056012;29;20053;-61
2022/05/31 17:52:49;;;;;;;9.43;7.25;;;15.10;99.90;;;;;;6327220;27;21082;-61
2022/05/31 17:55:51;;;;;;;10.63;7.60;;;15.20;99.90;;;;;;6326862;28;20048;-59
2022/05/31 17:58:56;;;;;;;80.07;55.53;;;15.10;99.90;;;;;;6320797;28;20040;-61
2022/05/31 18:01:58;;;;;;;17.08;12.88;;;15.10;99.90;;;;;;6338175;28;20543;-61
2022/05/31 18:05:00;;;;;;;18.33;13.75;;;15.00;99.90;;;;;;6338091;28;20420;-59
2022/05/31 18:08:06;;;;;;;14.15;11.40;;;15.00;99.90;;;;;;6345948;28;20511;-61
2022/05/31 18:11:10;;;;;;;8.73;7.68;;;14.90;99.90;;;;;;6339672;28;20051;-59
2022/05/31 18:14:12;;;;;;;12.98;9.60;;;14.80;99.90;;;;;;6337827;28;20071;-59
2022/05/31 18:17:14;;;;;;;34.50;23.05;;;14.70;99.90;;;;;;6271799;28;20432;-60
2022/05/31 18:20:16;;;;;;;19.85;12.88;;;14.70;99.90;;;;;;6282509;28;20063;-60
2022/05/31 18:23:21;;;;;;;7.70;6.75;;;14.70;99.90;;;;;;6283128;28;20045;-60
2022/05/31 18:26:23;;;;;;;13.65;9.10;;;14.60;99.90;;;;;;6281914;28;20051;-59
2022/05/31 18:29:41;;;;;;;8.90;6.65;;;14.60;99.90;;;;;;6287433;28;20049;-60
2022/05/31 18:32:44;;;;;;;6.72;5.97;;;14.50;99.90;;;;;;6286315;28;20548;-59
2022/05/31 18:35:46;;;;;;;10.90;7.28;;;14.40;99.90;;;;;;6284038;28;20386;-59
2022/05/31 18:38:58;;;;;;;12.77;11.30;;;14.40;99.90;;;;;;6286246;28;20048;-59
2022/05/31 18:42:01;;;;;;;52.25;25.98;;;14.30;99.90;;;;;;6274242;28;20473;-59
2022/05/31 18:45:07;;;;;;;65.07;24.75;;;14.30;99.90;;;;;;6283365;28;20053;-59
2022/05/31 18:48:09;;;;;;;308.00;90.45;;;14.20;99.90;;;;;;6285602;28;20468;-59
2022/05/31 18:51:11;;;;;;;14.30;8.65;;;14.10;99.90;;;;;;6282228;28;20057;-59
2022/05/31 18:54:15;;;;;;;73.95;42.63;;;14.10;99.90;;;;;;6284714;28;20052;-59
2022/05/31 18:57:18;;;;;;;12.60;8.60;;;14.00;99.90;;;;;;6281324;28;20056;-59
2022/05/31 19:00:21;;;;;;;9.23;7.03;;;13.90;99.90;;;;;;6279898;28;20064;-59
2022/05/31 19:03:24;;;;;;;7.93;6.65;;;13.80;99.90;;;;;;6274677;28;20047;-61
2022/05/31 19:06:26;;;;;;;9.70;6.50;;;13.80;99.90;;;;;;6270857;28;20493;-58
2022/05/31 19:09:29;;;;;;;8.63;6.45;;;13.70;99.90;;;;;;6251401;28;20100;-60
2022/05/31 19:12:32;;;;;;;9.27;6.93;;;13.70;99.90;;;;;;6262846;28;20045;-59
2022/05/31 19:15:34;;;;;;;9.18;6.80;;;13.60;99.90;;;;;;6268684;28;20076;-59
2022/05/31 19:18:39;;;;;;;9.73;7.40;;;13.60;99.90;;;;;;6268411;28;20490;-60
2022/05/31 19:21:41;;;;;;;8.02;6.78;;;13.40;99.90;;;;;;6269722;28;20044;-60
2022/05/31 19:24:45;;;;;;;6.95;6.03;;;13.30;99.90;;;;;;6268910;28;20478;-60
2022/05/31 19:27:47;;;;;;;7.85;6.07;;;13.30;99.90;;;;;;6268816;28;20041;-61
2022/05/31 19:30:50;;;;;;;8.38;6.07;;;13.20;99.90;;;;;;6265223;28;20049;-60
2022/05/31 19:33:55;;;;;;;8.38;6.50;;;13.10;99.90;;;;;;6271165;28;20067;-60
2022/05/31 19:36:59;;;;;;;6.72;5.95;;;13.00;99.90;;;;;;6247597;28;20050;-60
2022/05/31 19:40:02;;;;;;;7.57;6.68;;;12.90;99.90;;;;;;6242733;28;20046;-60
2022/05/31 19:43:05;;;;;;;15.38;11.48;;;12.90;99.90;;;;;;6243313;28;20053;-60
2022/05/31 19:46:08;;;;;;;24.85;14.95;;;12.80;99.90;;;;;;6243033;28;20115;-60
2022/05/31 19:49:11;;;;;;;31.40;16.37;;;12.80;99.90;;;;;;6243877;28;20057;-60
2022/05/31 19:52:14;;;;;;;28.23;20.42;;;12.80;99.90;;;;;;6245338;28;20538;-60
2022/05/31 19:55:18;;;;;;;21.58;18.98;;;12.80;99.90;;;;;;6244488;28;20053;-61
2022/05/31 19:58:20;;;;;;;6.60;5.85;;;12.80;99.90;;;;;;6245481;28;20045;-60
2022/05/31 20:01:22;;;;;;;7.80;6.38;;;12.70;99.90;;;;;;6241365;28;20045;-60
2022/05/31 20:04:24;;;;;;;7.18;6.15;;;12.60;99.90;;;;;;6242270;28;20038;-61
2022/05/31 20:07:26;;;;;;;8.43;6.47;;;12.60;99.90;;;;;;6238922;28;20045;-60
2022/05/31 20:10:32;;;;;;;8.40;6.82;;;12.50;99.90;;;;;;6239474;28;20061;-60
2022/05/31 20:13:34;;;;;;;10.50;7.22;;;12.50;99.90;;;;;;6243226;28;20049;-60
2022/05/31 20:16:38;;;;;;;8.75;6.60;;;12.50;99.90;;;;;;6243814;28;20049;-60
2022/05/31 20:19:41;;;;;;;8.23;6.43;;;12.50;99.90;;;;;;6243809;28;20052;-61
2022/05/31 20:22:46;;;;;;;8.95;6.00;;;12.40;99.90;;;;;;6245063;28;20132;-60
2022/05/31 20:25:50;;;;;;;7.88;6.65;;;12.40;99.90;;;;;;6241771;28;20064;-60
2022/05/31 20:28:52;;;;;;;8.70;6.07;;;12.40;99.90;;;;;;6242887;28;20048;-60
2022/05/31 20:31:54;;;;;;;8.50;6.05;;;12.40;99.90;;;;;;6244371;28;20060;-60
2022/05/31 20:34:57;;;;;;;7.05;6.35;;;12.30;99.90;;;;;;6244428;28;20037;-60
2022/05/31 20:37:59;;;;;;;8.10;6.68;;;12.30;99.90;;;;;;6244081;28;20406;-60
2022/05/31 20:41:05;;;;;;;7.63;6.15;;;12.30;99.90;;;;;;6240730;28;20048;-60
2022/05/31 20:44:09;;;;;;;8.88;6.32;;;12.20;99.90;;;;;;6234123;28;20056;-60
2022/05/31 20:47:11;;;;;;;;;;;12.20;99.90;;;;;;6242061;28;20053;-60
2022/05/31 20:50:13;;;;;;;9.20;7.40;;;12.20;99.90;;;;;;6245083;28;20419;-60
2022/05/31 20:53:15;;;;;;;9.75;8.00;;;12.10;99.90;;;;;;6242642;28;20049;-60
2022/05/31 20:56:19;;;;;;;7.80;7.10;;;12.10;99.90;;;;;;6245328;28;20060;-60
2022/05/31 20:59:21;;;;;;;10.73;7.10;;;12.10;99.90;;;;;;6240526;28;20049;-60
2022/05/31 21:02:25;;;;;;;9.10;7.40;;;12.00;99.90;;;;;;6241252;28;20060;-60
2022/05/31 21:05:27;;;;;;;8.85;7.18;;;12.00;99.90;;;;;;6243199;28;20422;-60
2022/05/31 21:08:29;;;;;;;10.18;8.20;;;12.00;99.90;;;;;;6244192;28;20057;-60
2022/05/31 21:11:32;;;;;;;10.18;8.15;;;11.90;99.90;;;;;;6236339;28;20056;-60
2022/05/31 21:14:35;;;;;;;11.25;8.30;;;11.90;99.90;;;;;;6238188;28;20057;-60
2022/05/31 21:17:36;;;;;;;9.83;8.83;;;11.80;99.90;;;;;;6244511;28;20497;-60
2022/05/31 21:20:40;;;;;;;10.20;8.73;;;11.70;99.90;;;;;;6242050;28;20048;-60
2022/05/31 21:23:43;;;;;;;9.00;7.75;;;11.60;99.90;;;;;;6234686;28;20133;-60
2022/05/31 21:26:47;;;;;;;9.80;8.80;;;11.50;99.90;;;;;;6236340;28;20501;-61
2022/05/31 21:29:50;;;;;;;9.88;8.85;;;11.40;99.90;;;;;;6240895;28;20038;-61
2022/05/31 21:32:52;;;;;;;11.20;8.98;;;11.50;99.90;;;;;;6233536;28;20045;-61
2022/05/31 21:35:55;;;;;;;11.60;10.15;;;11.50;99.90;;;;;;6234957;28;20516;-59
2022/05/31 21:42:18;;;;;;;15.43;9.35;;;11.50;99.90;;;;;;6236834;28;20049;-61
2022/05/31 21:45:21;;;;;;;10.68;9.57;;;11.40;99.90;;;;;;6237801;28;20053;-59
2022/05/31 21:48:23;;;;;;;11.38;10.13;;;11.40;99.90;;;;;;6236333;28;20046;-59
2022/05/31 21:51:26;;;;;;;10.85;9.75;;;11.40;99.90;;;;;;6234812;28;20048;-59
2022/05/31 21:54:28;;;;;;;13.05;11.75;;;11.40;99.90;;;;;;6243888;28;20446;-59
2022/05/31 21:57:36;;;;;;;14.52;12.40;;;11.40;99.90;;;;;;6242177;28;20045;-59
2022/05/31 22:00:59;;;;;;;22.13;19.45;;;11.40;99.90;;;;;;6243862;28;20051;-59
2022/05/31 22:04:01;;;;;;;17.73;14.68;;;11.50;99.90;;;;;;6241242;28;20410;-59
2022/05/31 22:07:03;;;;;;;15.85;14.15;;;11.50;99.90;;;;;;6234999;28;20049;-59
2022/05/31 22:10:06;;;;;;;12.15;10.95;;;11.50;99.90;;;;;;6243978;28;20052;-59
2022/05/31 22:13:12;;;;;;;15.82;13.52;;;11.50;99.90;;;;;;6228023;28;20060;-59
2022/05/31 22:16:14;;;;;;;14.50;11.80;;;11.50;99.90;;;;;;6236898;28;20061;-59
2022/05/31 22:19:16;;;;;;;15.10;11.45;;;11.40;99.90;;;;;;6240081;28;20050;-59
2022/05/31 22:22:18;;;;;;;13.10;10.77;;;11.30;99.90;;;;;;6243039;28;20418;-59
2022/05/31 22:25:20;;;;;;;12.75;10.95;;;11.30;99.90;;;;;;6238757;28;20065;-60
2022/05/31 22:28:24;;;;;;;14.48;11.48;;;11.20;99.90;;;;;;6243909;28;20478;-59
2022/05/31 22:31:26;;;;;;;;;;;11.20;99.90;;;;;;6242977;28;20041;-59
2022/05/31 22:34:28;;;;;;;14.93;11.93;;;11.20;99.90;;;;;;6243319;28;20262;-59
2022/05/31 22:37:29;;;;;;;12.85;10.85;;;11.10;99.90;;;;;;6241174;28;20508;-59
2022/05/31 22:40:34;;;;;;;13.38;11.65;;;11.20;99.90;;;;;;6243738;28;20053;-59
2022/05/31 22:43:38;;;;;;;13.85;11.82;;;11.10;99.90;;;;;;6246171;28;20064;-59
2022/05/31 22:46:44;;;;;;;16.50;12.23;;;11.20;99.90;;;;;;6245126;28;20052;-59
2022/05/31 22:49:46;;;;;;;15.18;11.63;;;11.20;99.90;;;;;;6244808;28;20052;-59
2022/05/31 22:52:48;;;;;;;13.80;11.63;;;11.20;99.90;;;;;;6246309;28;20057;-59
2022/05/31 22:55:53;;;;;;;12.88;11.40;;;11.20;99.90;;;;;;6241481;28;20049;-59
2022/05/31 22:58:58;;;;;;;12.45;11.02;;;11.20;99.90;;;;;;6243373;28;20046;-59
2022/05/31 23:02:04;;;;;;;13.52;12.05;;;11.20;99.90;;;;;;6246405;28;20045;-59
2022/05/31 23:05:06;;;;;;;16.15;12.77;;;11.20;99.90;;;;;;6244339;28;20500;-59
2022/05/31 23:08:09;;;;;;;13.37;11.97;;;11.20;99.90;;;;;;6247131;28;20049;-59
2022/05/31 23:11:11;;;;;;;15.52;12.18;;;11.10;99.90;;;;;;6246178;28;20423;-59
2022/05/31 23:14:14;;;;;;;14.68;12.23;;;11.10;99.90;;;;;;6243924;28;20057;-59
2022/05/31 23:17:16;;;;;;;15.60;12.98;;;11.00;99.90;;;;;;6245523;28;20398;-59
2022/05/31 23:20:25;;;;;;;15.27;12.95;;;11.00;99.90;;;;;;6247132;28;20057;-60
2022/05/31 23:26:52;;;;;;;14.48;12.98;;;10.90;99.90;;;;;;6239127;28;20482;-60
2022/05/31 23:29:57;;;;;;;20.83;13.55;;;10.90;99.90;;;;;;6245534;28;20068;-60
2022/05/31 23:33:04;;;;;;;18.20;14.00;;;10.80;99.90;;;;;;6240215;28;20422;-60
2022/05/31 23:36:07;;;;;;;17.20;14.30;;;10.90;99.90;;;;;;6246407;28;20417;-60
2022/05/31 23:39:09;;;;;;;17.27;15.15;;;10.90;99.90;;;;;;6238679;28;20050;-61
2022/05/31 23:42:11;;;;;;;17.73;14.70;;;10.90;99.90;;;;;;6241965;28;20057;-61
2022/05/31 23:45:14;;;;;;;19.48;14.55;;;10.90;99.90;;;;;;6247818;28;20073;-58
2022/05/31 23:48:16;;;;;;;16.40;14.75;;;10.90;99.90;;;;;;6243134;28;20417;-60
2022/05/31 23:51:18;;;;;;;18.55;15.05;;;10.90;99.90;;;;;;6242196;28;20144;-61
2022/05/31 23:54:20;;;;;;;17.90;14.98;;;10.90;99.90;;;;;;6242747;28;20086;-61
2022/05/31 23:57:22;;;;;;;17.95;15.15;;;11.00;99.90;;;;;;6243008;28;20053;-58
